Albia, IA

6:03 PM CDT on April 19, 2015 (GMT -0500)
Oskaloosa Municipal | | Change Station
CLOSE
Current Station
Airport
Location: Oskaloosa,
Elevation: 840 ft
Nearby Weather Stations

Elev 840 ft 41.23 °N, 92.49 °W | Updated 28 minutes ago

Rain
Rain
56 °F
Feels Like 56 °F
N
9
Wind Variable Wind from West

Today
High -- | Low -- °F
--% Chance of Precip.
Yesterday
High -- | Low -- °F
Precip. -- in
6:25 AM 7:54 PM
New Moon, 2% visible
Pressure 29.50 in
Visibility 5.0 miles
Clouds Scattered Clouds 3000 ft
Mostly Cloudy 3600 ft
Overcast 4300 ft
Dew Point 54 °F
Humidity 94%
Rainfall 0.70 in
Snow Depth Not available.
UV 1 out of 12
Pollen 2.30 out of 12
Air Quality Not available.
Flu Activity Local Activity
METAR KOOA 192235Z AUTO 28008KT 5SM RA SCT030 BKN036 OVC043 13/12 A2950 RMK AO2 P0011 T01330123

More Conditions Fewer Conditions

Pressure 29.50 in
Visibility 5.0 miles
Clouds Scattered Clouds 3000 ft
Mostly Cloudy 3600 ft
Overcast 4300 ft
Dew Point 54 °F
Humidity 94%
Rainfall 0.70 in
Snow Depth Not available.
UV 1 out of 12
Pollen 2.30 out of 12
Air Quality Not available.
Flu Activity Local Activity
METAR KOOA 192235Z AUTO 28008KT 5SM RA SCT030 BKN036 OVC043 13/12 A2950 RMK AO2 P0011 T01330123

More Conditions Fewer Conditions

10-Day Weather Forecast

Almanac

Astronomy

Apr. 19, 2015 Rise Set
Actual Time
Civil Twilight
Nautical Twilight
Astronomical Twilight
Moon
Length of Visible Light
Length of Day
Tomorrow will be .
, % of the Moon is Illuminated

Today's Extremes

State Highs State Lows

Community

WunderPhotos

Upload Photos

1,815,012 photos uploaded!

WunderBlogs® & News

Nearby

Air Quality

  Air Quality AQ Index Pollutant
Not available.

Snow Depth

Station Depth Elevation

Earthquake Activity

City Distance Mag. Time & Date
Minimum magnitude displayed is 2.5.

Coastal Water Temperatures

Place Temperature

Stations

Nearby Weather Stations

Station Location Temp. Windchill Dew Point Humidity Wind Precip. Elev Updated Type